sensor_id;sensor_type;location;lat;lon;timestamp;pressure;altitude;pressure_sealevel;temperature;humidity
19576;BME280;41589;51.196;7.074;2023-07-13T00:01:47;98890.59;;;19.43;43.55
19576;BME280;41589;51.196;7.074;2023-07-13T00:06:49;98893.78;;;19.33;43.72
19576;BME280;41589;51.196;7.074;2023-07-13T00:11:55;98890.44;;;19.29;43.82
19576;BME280;41589;51.196;7.074;2023-07-13T00:16:56;98890.97;;;19.22;43.75
19576;BME280;41589;51.196;7.074;2023-07-13T00:21:57;98894.59;;;19.23;43.93
19576;BME280;41589;51.196;7.074;2023-07-13T00:26:57;98887.56;;;19.24;44.34
19576;BME280;41589;51.196;7.074;2023-07-13T00:31:58;98893.06;;;19.27;44.06
19576;BME280;41589;51.196;7.074;2023-07-13T00:36:58;98891.75;;;19.23;44.30
19576;BME280;41589;51.196;7.074;2023-07-13T00:42:00;98895.94;;;19.16;44.30
19576;BME280;41589;51.196;7.074;2023-07-13T00:47:00;98884.56;;;19.11;44.39
19576;BME280;41589;51.196;7.074;2023-07-13T00:52:06;98886.09;;;19.12;44.43
19576;BME280;41589;51.196;7.074;2023-07-13T00:57:10;98889.00;;;19.06;44.78
19576;BME280;41589;51.196;7.074;2023-07-13T01:02:14;98890.78;;;19.09;44.83
19576;BME280;41589;51.196;7.074;2023-07-13T01:07:14;98880.47;;;19.00;44.89
19576;BME280;41589;51.196;7.074;2023-07-13T01:12:15;98872.75;;;18.90;45.05
19576;BME280;41589;51.196;7.074;2023-07-13T01:17:15;98880.28;;;18.82;45.16
19576;BME280;41589;51.196;7.074;2023-07-13T01:22:18;98874.41;;;18.74;45.60
19576;BME280;41589;51.196;7.074;2023-07-13T01:27:24;98876.50;;;18.62;45.73
19576;BME280;41589;51.196;7.074;2023-07-13T01:32:28;98880.88;;;18.63;45.96
19576;BME280;41589;51.196;7.074;2023-07-13T01:37:29;98880.66;;;18.61;46.23
19576;BME280;41589;51.196;7.074;2023-07-13T01:42:33;98879.34;;;18.62;46.26
19576;BME280;41589;51.196;7.074;2023-07-13T01:47:33;98874.47;;;18.52;46.73
19576;BME280;41589;51.196;7.074;2023-07-13T01:52:34;98880.72;;;18.44;46.58
19576;BME280;41589;51.196;7.074;2023-07-13T01:57:34;98884.06;;;18.32;46.75
19576;BME280;41589;51.196;7.074;2023-07-13T02:02:34;98893.91;;;18.31;47.12
19576;BME280;41589;51.196;7.074;2023-07-13T02:07:36;98884.88;;;18.21;47.38
19576;BME280;41589;51.196;7.074;2023-07-13T02:12:38;98886.22;;;18.09;47.58
19576;BME280;41589;51.196;7.074;2023-07-13T02:17:38;98889.81;;;18.09;47.78
19576;BME280;41589;51.196;7.074;2023-07-13T02:22:39;98895.78;;;18.06;47.83
19576;BME280;41589;51.196;7.074;2023-07-13T02:27:39;98881.06;;;18.02;48.20
19576;BME280;41589;51.196;7.074;2023-07-13T02:32:40;98893.72;;;18.01;48.39
19576;BME280;41589;51.196;7.074;2023-07-13T02:37:40;98906.16;;;17.98;48.52
19576;BME280;41589;51.196;7.074;2023-07-13T02:42:41;98881.56;;;17.95;48.86
19576;BME280;41589;51.196;7.074;2023-07-13T02:47:41;98883.38;;;17.98;48.96
19576;BME280;41589;51.196;7.074;2023-07-13T02:52:42;98898.94;;;17.85;48.75
19576;BME280;41589;51.196;7.074;2023-07-13T02:57:42;98898.91;;;17.80;49.20
19576;BME280;41589;51.196;7.074;2023-07-13T03:02:42;98896.59;;;17.67;49.58
19576;BME280;41589;51.196;7.074;2023-07-13T03:07:43;98895.56;;;17.59;49.91
19576;BME280;41589;51.196;7.074;2023-07-13T03:12:44;98893.22;;;17.57;50.29
19576;BME280;41589;51.196;7.074;2023-07-13T03:17:54;98902.78;;;17.54;50.51
19576;BME280;41589;51.196;7.074;2023-07-13T03:22:54;98904.59;;;17.52;50.65
19576;BME280;41589;51.196;7.074;2023-07-13T03:27:55;98907.41;;;17.46;50.87
19576;BME280;41589;51.196;7.074;2023-07-13T03:32:57;98909.75;;;17.48;51.04
19576;BME280;41589;51.196;7.074;2023-07-13T03:37:59;98904.81;;;17.48;51.39
19576;BME280;41589;51.196;7.074;2023-07-13T03:43:00;98918.81;;;17.52;51.40
19576;BME280;41589;51.196;7.074;2023-07-13T03:48:03;98915.19;;;17.51;51.33
19576;BME280;41589;51.196;7.074;2023-07-13T03:53:04;98929.16;;;17.49;51.56
19576;BME280;41589;51.196;7.074;2023-07-13T04:03:27;98935.66;;;17.61;51.62
19576;BME280;41589;51.196;7.074;2023-07-13T04:08:30;98947.56;;;17.76;51.31
19576;BME280;41589;51.196;7.074;2023-07-13T04:13:31;98935.66;;;17.78;51.17
19576;BME280;41589;51.196;7.074;2023-07-13T04:18:31;98953.28;;;17.82;51.12
19576;BME280;41589;51.196;7.074;2023-07-13T04:23:31;98953.53;;;17.84;51.13
19576;BME280;41589;51.196;7.074;2023-07-13T04:28:32;98955.88;;;17.85;50.97
19576;BME280;41589;51.196;7.074;2023-07-13T04:33:33;98955.09;;;17.85;51.11
19576;BME280;41589;51.196;7.074;2023-07-13T04:38:34;98958.97;;;17.99;51.07
19576;BME280;41589;51.196;7.074;2023-07-13T04:43:35;98959.22;;;18.06;50.95
19576;BME280;41589;51.196;7.074;2023-07-13T04:48:36;98956.13;;;18.15;50.88
19576;BME280;41589;51.196;7.074;2023-07-13T04:53:37;98952.22;;;18.24;51.04
19576;BME280;41589;51.196;7.074;2023-07-13T04:58:37;98958.16;;;18.32;51.07
19576;BME280;41589;51.196;7.074;2023-07-13T05:03:38;98952.72;;;18.51;50.84
19576;BME280;41589;51.196;7.074;2023-07-13T05:08:38;98958.69;;;18.47;50.82
19576;BME280;41589;51.196;7.074;2023-07-13T05:13:38;98967.72;;;18.57;51.18
19576;BME280;41589;51.196;7.074;2023-07-13T05:18:39;98969.78;;;18.62;51.17
19576;BME280;41589;51.196;7.074;2023-07-13T05:23:39;98970.03;;;18.69;51.17
19576;BME280;41589;51.196;7.074;2023-07-13T05:28:42;98972.38;;;18.65;51.23
19576;BME280;41589;51.196;7.074;2023-07-13T05:33:42;98980.16;;;18.65;51.32
19576;BME280;41589;51.196;7.074;2023-07-13T05:38:43;98983.50;;;18.69;51.58
19576;BME280;41589;51.196;7.074;2023-07-13T05:43:43;98987.09;;;18.81;51.89
19576;BME280;41589;51.196;7.074;2023-07-13T05:48:43;98995.31;;;19.01;51.68
19576;BME280;41589;51.196;7.074;2023-07-13T05:53:44;98987.53;;;19.07;51.54
19576;BME280;41589;51.196;7.074;2023-07-13T05:58:44;98995.56;;;19.09;51.59
19576;BME280;41589;51.196;7.074;2023-07-13T06:03:45;99006.94;;;19.14;51.70
19576;BME280;41589;51.196;7.074;2023-07-13T06:08:45;99012.34;;;19.23;51.40
19576;BME280;41589;51.196;7.074;2023-07-13T06:13:46;99010.28;;;19.29;51.71
19576;BME280;41589;51.196;7.074;2023-07-13T06:18:46;99005.28;;;19.47;51.76
19576;BME280;41589;51.196;7.074;2023-07-13T06:23:49;99002.94;;;19.45;51.42
19576;BME280;41589;51.196;7.074;2023-07-13T06:28:49;99008.91;;;19.42;52.07
19576;BME280;41589;51.196;7.074;2023-07-13T06:33:50;99015.94;;;19.41;52.02
19576;BME280;41589;51.196;7.074;2023-07-13T06:38:50;99012.00;;;19.49;52.41
19576;BME280;41589;51.196;7.074;2023-07-13T06:43:50;99012.94;;;19.69;52.53
19576;BME280;41589;51.196;7.074;2023-07-13T06:48:51;99022.50;;;19.71;52.14
19576;BME280;41589;51.196;7.074;2023-07-13T06:53:51;99030.69;;;19.50;52.66
19576;BME280;41589;51.196;7.074;2023-07-13T06:58:52;99029.84;;;19.55;52.97
19576;BME280;41589;51.196;7.074;2023-07-13T07:03:52;99039.97;;;19.56;53.46
19576;BME280;41589;51.196;7.074;2023-07-13T07:08:53;99029.28;;;19.68;53.25
19576;BME280;41589;51.196;7.074;2023-07-13T07:13:53;99040.88;;;19.81;53.32
19576;BME280;41589;51.196;7.074;2023-07-13T07:18:54;99044.66;;;20.01;53.00
19576;BME280;41589;51.196;7.074;2023-07-13T07:23:54;99042.13;;;20.27;52.87
19576;BME280;41589;51.196;7.074;2023-07-13T07:28:55;99038.25;;;20.55;52.01
19576;BME280;41589;51.196;7.074;2023-07-13T07:33:55;99054.13;;;20.50;52.00
19576;BME280;41589;51.196;7.074;2023-07-13T07:38:56;99050.34;;;20.42;52.08
19576;BME280;41589;51.196;7.074;2023-07-13T07:43:56;99058.31;;;20.49;52.31
19576;BME280;41589;51.196;7.074;2023-07-13T07:48:56;99052.47;;;20.60;51.82
19576;BME280;41589;51.196;7.074;2023-07-13T07:53:57;99054.53;;;20.65;51.97
19576;BME280;41589;51.196;7.074;2023-07-13T07:58:57;99057.50;;;20.79;51.58
19576;BME280;41589;51.196;7.074;2023-07-13T08:03:58;99061.84;;;20.91;51.19
19576;BME280;41589;51.196;7.074;2023-07-13T08:08:58;99067.19;;;21.00;51.35
19576;BME280;41589;51.196;7.074;2023-07-13T08:13:59;99059.88;;;21.04;51.29
19576;BME280;41589;51.196;7.074;2023-07-13T08:19:00;99059.22;;;21.17;50.77
19576;BME280;41589;51.196;7.074;2023-07-13T08:24:00;99057.44;;;21.33;50.60
19576;BME280;41589;51.196;7.074;2023-07-13T08:29:00;99059.53;;;21.14;50.27
19576;BME280;41589;51.196;7.074;2023-07-13T08:34:01;99059.94;;;21.42;50.57
19576;BME280;41589;51.196;7.074;2023-07-13T08:39:01;99065.81;;;21.31;49.97
19576;BME280;41589;51.196;7.074;2023-07-13T08:44:02;99064.22;;;21.36;49.78
19576;BME280;41589;51.196;7.074;2023-07-13T08:49:21;99053.34;;;21.72;49.43
19576;BME280;41589;51.196;7.074;2023-07-13T08:59:33;99046.16;;;22.16;48.02
19576;BME280;41589;51.196;7.074;2023-07-13T09:04:44;99037.63;;;21.78;48.48
19576;BME280;41589;51.196;7.074;2023-07-13T09:14:56;99051.19;;;22.61;48.02
19576;BME280;41589;51.196;7.074;2023-07-13T09:20:15;99048.13;;;22.85;46.86
19576;BME280;41589;51.196;7.074;2023-07-13T09:25:32;99049.41;;;23.03;47.49
19576;BME280;41589;51.196;7.074;2023-07-13T09:30:38;99051.69;;;23.44;46.53
19576;BME280;41589;51.196;7.074;2023-07-13T09:35:42;99056.19;;;23.66;45.13
19576;BME280;41589;51.196;7.074;2023-07-13T09:40:49;99055.63;;;23.81;45.08
19576;BME280;41589;51.196;7.074;2023-07-13T09:45:54;99057.97;;;23.43;45.59
19576;BME280;41589;51.196;7.074;2023-07-13T09:50:55;99060.28;;;24.05;44.19
19576;BME280;41589;51.196;7.074;2023-07-13T09:55:57;99057.78;;;24.01;43.08
19576;BME280;41589;51.196;7.074;2023-07-13T10:01:00;99069.69;;;23.58;44.21
19576;BME280;41589;51.196;7.074;2023-07-13T10:11:29;99083.97;;;23.24;43.80
19576;BME280;41589;51.196;7.074;2023-07-13T10:16:32;99081.53;;;23.15;44.93
19576;BME280;41589;51.196;7.074;2023-07-13T10:21:39;99068.13;;;23.70;45.47
19576;BME280;41589;51.196;7.074;2023-07-13T10:26:51;99079.59;;;23.97;43.26
19576;BME280;41589;51.196;7.074;2023-07-13T10:31:53;99084.25;;;23.73;43.29
19576;BME280;41589;51.196;7.074;2023-07-13T10:36:53;99088.91;;;23.76;43.30
19576;BME280;41589;51.196;7.074;2023-07-13T10:41:59;99090.34;;;23.56;42.51
19576;BME280;41589;51.196;7.074;2023-07-13T10:47:07;99096.88;;;23.57;42.97
19576;BME280;41589;51.196;7.074;2023-07-13T10:57:42;99098.84;;;23.88;42.11
19576;BME280;41589;51.196;7.074;2023-07-13T11:02:43;99104.75;;;24.04;42.35
19576;BME280;41589;51.196;7.074;2023-07-13T11:18:51;99090.78;;;23.74;41.59
19576;BME280;41589;51.196;7.074;2023-07-13T11:34:35;99102.28;;;23.47;41.94
19576;BME280;41589;51.196;7.074;2023-07-13T11:39:39;99101.84;;;23.43;41.58
19576;BME280;41589;51.196;7.074;2023-07-13T11:44:49;99098.06;;;23.09;42.39
19576;BME280;41589;51.196;7.074;2023-07-13T11:49:52;99098.53;;;23.26;43.08
19576;BME280;41589;51.196;7.074;2023-07-13T11:54:57;99093.44;;;23.32;42.68
19576;BME280;41589;51.196;7.074;2023-07-13T12:00:04;99096.78;;;23.36;43.10
19576;BME280;41589;51.196;7.074;2023-07-13T12:05:13;99105.06;;;23.26;42.35
19576;BME280;41589;51.196;7.074;2023-07-13T12:10:26;99091.47;;;23.27;43.35
19576;BME280;41589;51.196;7.074;2023-07-13T12:15:49;99083.84;;;23.29;43.07
19576;BME280;41589;51.196;7.074;2023-07-13T12:20:56;99078.66;;;23.54;42.48
19576;BME280;41589;51.196;7.074;2023-07-13T12:25:58;99068.34;;;23.72;42.77
19576;BME280;41589;51.196;7.074;2023-07-13T12:31:04;99078.16;;;23.90;41.58
19576;BME280;41589;51.196;7.074;2023-07-13T12:36:06;99076.97;;;23.72;41.32
19576;BME280;41589;51.196;7.074;2023-07-13T12:41:08;99090.47;;;23.77;40.18
19576;BME280;41589;51.196;7.074;2023-07-13T12:46:21;99075.94;;;23.96;40.69
19576;BME280;41589;51.196;7.074;2023-07-13T12:51:25;99075.19;;;23.82;40.14
19576;BME280;41589;51.196;7.074;2023-07-13T12:56:27;99084.56;;;23.96;39.40
19576;BME280;41589;51.196;7.074;2023-07-13T13:01:29;99082.31;;;24.02;39.72
19576;BME280;41589;51.196;7.074;2023-07-13T13:06:32;99071.88;;;24.46;39.22
19576;BME280;41589;51.196;7.074;2023-07-13T13:11:33;99078.13;;;24.37;37.60
19576;BME280;41589;51.196;7.074;2023-07-13T13:16:38;99071.91;;;24.33;37.56
19576;BME280;41589;51.196;7.074;2023-07-13T13:21:44;99081.56;;;24.23;37.16
19576;BME280;41589;51.196;7.074;2023-07-13T13:26:46;99085.16;;;24.36;37.59
19576;BME280;41589;51.196;7.074;2023-07-13T13:31:47;99077.75;;;24.83;37.27
19576;BME280;41589;51.196;7.074;2023-07-13T13:36:49;99080.75;;;24.77;37.23
19576;BME280;41589;51.196;7.074;2023-07-13T13:41:52;99065.28;;;25.09;36.74
19576;BME280;41589;51.196;7.074;2023-07-13T13:46:55;99067.56;;;25.02;36.55
19576;BME280;41589;51.196;7.074;2023-07-13T13:51:56;99076.22;;;25.02;35.40
19576;BME280;41589;51.196;7.074;2023-07-13T13:56:56;99069.81;;;24.75;36.10
19576;BME280;41589;51.196;7.074;2023-07-13T14:01:59;99073.00;;;24.64;35.93
19576;BME280;41589;51.196;7.074;2023-07-13T14:07:00;99066.63;;;24.37;36.40
19576;BME280;41589;51.196;7.074;2023-07-13T14:12:01;99076.25;;;24.27;37.21
19576;BME280;41589;51.196;7.074;2023-07-13T14:17:01;99071.91;;;24.33;37.47
19576;BME280;41589;51.196;7.074;2023-07-13T14:22:02;99074.91;;;24.41;37.16
19576;BME280;41589;51.196;7.074;2023-07-13T14:27:02;99085.41;;;24.38;37.00
19576;BME280;41589;51.196;7.074;2023-07-13T14:32:04;99082.91;;;24.22;36.89
19576;BME280;41589;51.196;7.074;2023-07-13T14:37:08;99082.34;;;24.23;37.22
19576;BME280;41589;51.196;7.074;2023-07-13T14:42:12;99081.78;;;24.25;37.47
19576;BME280;41589;51.196;7.074;2023-07-13T14:47:12;99076.88;;;24.33;37.74
19576;BME280;41589;51.196;7.074;2023-07-13T14:52:21;99078.38;;;24.26;36.55
19576;BME280;41589;51.196;7.074;2023-07-13T14:57:23;99078.50;;;24.21;36.43
19576;BME280;41589;51.196;7.074;2023-07-13T15:02:29;99075.69;;;23.94;36.73
19576;BME280;41589;51.196;7.074;2023-07-13T15:07:30;99077.63;;;23.65;36.96
19576;BME280;41589;51.196;7.074;2023-07-13T15:12:30;99074.00;;;23.51;37.13
19576;BME280;41589;51.196;7.074;2023-07-13T15:17:37;99076.22;;;23.45;37.63
19576;BME280;41589;51.196;7.074;2023-07-13T15:22:38;99088.94;;;23.37;39.35
19576;BME280;41589;51.196;7.074;2023-07-13T15:27:38;99129.81;;;22.84;42.20
19576;BME280;41589;51.196;7.074;2023-07-13T15:32:38;99144.47;;;22.30;45.83
19576;BME280;41589;51.196;7.074;2023-07-13T15:37:39;99150.50;;;21.45;49.09
19576;BME280;41589;51.196;7.074;2023-07-13T15:42:43;99145.00;;;20.98;51.52
19576;BME280;41589;51.196;7.074;2023-07-13T15:47:45;99145.25;;;20.65;53.61
19576;BME280;41589;51.196;7.074;2023-07-13T15:52:54;99142.19;;;20.57;54.31
19576;BME280;41589;51.196;7.074;2023-07-13T15:57:55;99143.19;;;20.65;54.27
19576;BME280;41589;51.196;7.074;2023-07-13T16:02:56;99136.13;;;20.72;54.41
19576;BME280;41589;51.196;7.074;2023-07-13T16:07:56;99141.00;;;20.77;54.87
19576;BME280;41589;51.196;7.074;2023-07-13T16:12:57;99145.94;;;20.76;55.29
19576;BME280;41589;51.196;7.074;2023-07-13T16:17:58;99142.31;;;20.76;56.05
19576;BME280;41589;51.196;7.074;2023-07-13T16:22:59;99146.94;;;20.79;56.42
19576;BME280;41589;51.196;7.074;2023-07-13T16:28:03;99137.28;;;20.82;56.35
19576;BME280;41589;51.196;7.074;2023-07-13T16:33:05;99140.97;;;20.83;56.96
19576;BME280;41589;51.196;7.074;2023-07-13T16:38:18;99142.44;;;20.95;57.36
19576;BME280;41589;51.196;7.074;2023-07-13T16:43:19;99128.00;;;21.06;57.15
19576;BME280;41589;51.196;7.074;2023-07-13T16:48:22;99137.03;;;21.16;57.19
19576;BME280;41589;51.196;7.074;2023-07-13T16:53:27;99144.94;;;21.28;57.05
19576;BME280;41589;51.196;7.074;2023-07-13T16:58:30;99138.38;;;21.33;57.12
19576;BME280;41589;51.196;7.074;2023-07-13T17:03:31;99139.56;;;21.44;56.52
19576;BME280;41589;51.196;7.074;2023-07-13T17:08:33;99143.47;;;21.46;56.29
19576;BME280;41589;51.196;7.074;2023-07-13T17:13:33;99149.66;;;21.50;56.00
19576;BME280;41589;51.196;7.074;2023-07-13T17:18:33;99142.59;;;21.51;56.05
19576;BME280;41589;51.196;7.074;2023-07-13T17:23:36;99152.88;;;21.41;55.35
19576;BME280;41589;51.196;7.074;2023-07-13T17:28:38;99156.72;;;21.25;55.73
19576;BME280;41589;51.196;7.074;2023-07-13T17:33:39;99160.81;;;21.29;55.81
19576;BME280;41589;51.196;7.074;2023-07-13T17:38:43;99163.44;;;21.27;55.50
19576;BME280;41589;51.196;7.074;2023-07-13T17:43:44;99157.59;;;21.39;54.88
19576;BME280;41589;51.196;7.074;2023-07-13T17:48:45;99166.06;;;21.50;54.74
19576;BME280;41589;51.196;7.074;2023-07-13T17:53:46;99160.47;;;21.63;54.50
19576;BME280;41589;51.196;7.074;2023-07-13T17:58:47;99152.38;;;22.05;54.12
19576;BME280;41589;51.196;7.074;2023-07-13T18:03:51;99154.09;;;22.13;51.56
19576;BME280;41589;51.196;7.074;2023-07-13T18:09:24;99151.84;;;21.87;52.02
19576;BME280;41589;51.196;7.074;2023-07-13T18:14:29;99150.13;;;21.79;52.50
19576;BME280;41589;51.196;7.074;2023-07-13T18:19:39;99154.91;;;21.71;51.96
19576;BME280;41589;51.196;7.074;2023-07-13T18:24:41;99162.56;;;21.63;52.92
19576;BME280;41589;51.196;7.074;2023-07-13T18:29:41;99154.50;;;21.61;53.05
19576;BME280;41589;51.196;7.074;2023-07-13T18:34:43;99156.38;;;21.53;52.85
19576;BME280;41589;51.196;7.074;2023-07-13T18:39:55;99158.31;;;21.45;53.46
19576;BME280;41589;51.196;7.074;2023-07-13T18:45:07;99162.06;;;21.34;53.29
19576;BME280;41589;51.196;7.074;2023-07-13T18:50:29;99168.09;;;21.30;53.57
19576;BME280;41589;51.196;7.074;2023-07-13T18:55:31;99159.91;;;21.16;53.63
19576;BME280;41589;51.196;7.074;2023-07-13T19:00:55;99160.03;;;21.04;53.93
19576;BME280;41589;51.196;7.074;2023-07-13T19:06:08;99166.34;;;20.97;54.37
19576;BME280;41589;51.196;7.074;2023-07-13T19:11:16;99176.38;;;20.74;53.24
19576;BME280;41589;51.196;7.074;2023-07-13T19:16:23;99171.25;;;20.67;53.54
19576;BME280;41589;51.196;7.074;2023-07-13T19:21:36;99167.91;;;20.63;53.03
19576;BME280;41589;51.196;7.074;2023-07-13T19:27:03;99178.84;;;20.59;53.45
19576;BME280;41589;51.196;7.074;2023-07-13T19:32:17;99177.84;;;20.51;53.02
19576;BME280;41589;51.196;7.074;2023-07-13T19:37:50;99178.66;;;20.45;53.10
19576;BME280;41589;51.196;7.074;2023-07-13T19:43:12;99184.16;;;20.43;52.86
19576;BME280;41589;51.196;7.074;2023-07-13T19:48:13;99189.94;;;20.32;52.79
19576;BME280;41589;51.196;7.074;2023-07-13T19:53:18;99197.47;;;20.30;52.74
19576;BME280;41589;51.196;7.074;2023-07-13T19:58:50;99202.16;;;20.27;53.29
19576;BME280;41589;51.196;7.074;2023-07-13T20:04:18;99212.81;;;20.27;53.62
19576;BME280;41589;51.196;7.074;2023-07-13T20:09:28;99201.75;;;20.06;53.10
19576;BME280;41589;51.196;7.074;2023-07-13T20:14:40;99216.59;;;19.99;53.61
19576;BME280;41589;51.196;7.074;2023-07-13T20:19:43;99219.97;;;19.92;54.56
19576;BME280;41589;51.196;7.074;2023-07-13T20:24:58;99222.09;;;19.80;54.99
19576;BME280;41589;51.196;7.074;2023-07-13T20:30:15;99220.56;;;19.79;55.93
19576;BME280;41589;51.196;7.074;2023-07-13T20:35:30;99216.69;;;19.71;56.28
19576;BME280;41589;51.196;7.074;2023-07-13T20:40:35;99201.13;;;19.61;55.66
19576;BME280;41589;51.196;7.074;2023-07-13T20:45:45;99204.53;;;19.54;56.18
19576;BME280;41589;51.196;7.074;2023-07-13T20:51:02;99210.50;;;19.50;56.00
19576;BME280;41589;51.196;7.074;2023-07-13T20:56:15;99216.75;;;19.49;55.79
19576;BME280;41589;51.196;7.074;2023-07-13T21:01:30;99225.84;;;19.47;56.15
19576;BME280;41589;51.196;7.074;2023-07-13T21:06:34;99229.72;;;19.50;56.44
19576;BME280;41589;51.196;7.074;2023-07-13T21:11:38;99232.31;;;19.48;57.13
19576;BME280;41589;51.196;7.074;2023-07-13T21:16:46;99220.66;;;19.40;57.41
19576;BME280;41589;51.196;7.074;2023-07-13T21:22:00;99222.47;;;19.38;58.10
19576;BME280;41589;51.196;7.074;2023-07-13T21:27:07;99228.69;;;19.30;58.05
19576;BME280;41589;51.196;7.074;2023-07-13T21:32:20;99215.69;;;19.24;58.18
19576;BME280;41589;51.196;7.074;2023-07-13T21:37:30;99227.38;;;19.20;57.74
19576;BME280;41589;51.196;7.074;2023-07-13T21:42:31;99250.22;;;19.20;57.96
19576;BME280;41589;51.196;7.074;2023-07-13T21:47:32;99231.53;;;19.14;58.18
19576;BME280;41589;51.196;7.074;2023-07-13T21:52:32;99236.47;;;19.13;58.61
19576;BME280;41589;51.196;7.074;2023-07-13T21:57:33;99232.56;;;19.11;58.57
19576;BME280;41589;51.196;7.074;2023-07-13T22:02:33;99227.66;;;19.11;58.68
19576;BME280;41589;51.196;7.074;2023-07-13T22:07:33;99232.06;;;19.07;58.73
19576;BME280;41589;51.196;7.074;2023-07-13T22:12:35;99231.78;;;19.04;58.44
19576;BME280;41589;51.196;7.074;2023-07-13T22:17:35;99231.56;;;18.97;58.47
19576;BME280;41589;51.196;7.074;2023-07-13T22:22:36;99231.31;;;18.95;58.52
19576;BME280;41589;51.196;7.074;2023-07-13T22:27:39;99223.50;;;18.90;58.21
19576;BME280;41589;51.196;7.074;2023-07-13T22:32:40;99225.31;;;18.87;58.52
19576;BME280;41589;51.196;7.074;2023-07-13T22:37:41;99229.22;;;18.79;58.26
19576;BME280;41589;51.196;7.074;2023-07-13T22:42:42;99220.91;;;18.81;58.12
19576;BME280;41589;51.196;7.074;2023-07-13T22:47:46;99218.84;;;18.75;58.08
19576;BME280;41589;51.196;7.074;2023-07-13T22:52:49;99216.25;;;18.66;57.76
19576;BME280;41589;51.196;7.074;2023-07-13T22:57:53;99219.63;;;18.65;57.71
19576;BME280;41589;51.196;7.074;2023-07-13T23:02:54;99213.13;;;18.53;57.86
19576;BME280;41589;51.196;7.074;2023-07-13T23:07:56;99215.16;;;18.47;57.96
19576;BME280;41589;51.196;7.074;2023-07-13T23:12:57;99210.50;;;18.50;57.93
19576;BME280;41589;51.196;7.074;2023-07-13T23:18:03;99208.97;;;18.43;57.92
19576;BME280;41589;51.196;7.074;2023-07-13T23:23:04;99207.66;;;18.44;57.80
19576;BME280;41589;51.196;7.074;2023-07-13T23:28:05;99197.25;;;18.35;57.59
19576;BME280;41589;51.196;7.074;2023-07-13T23:33:17;99198.81;;;18.36;57.74
19576;BME280;41589;51.196;7.074;2023-07-13T23:38:19;99194.66;;;18.37;57.31
19576;BME280;41589;51.196;7.074;2023-07-13T23:43:23;99183.75;;;18.30;57.47
19576;BME280;41589;51.196;7.074;2023-07-13T23:48:27;99189.22;;;18.34;57.53
19576;BME280;41589;51.196;7.074;2023-07-13T23:53:28;99190.50;;;18.33;57.49
19576;BME280;41589;51.196;7.074;2023-07-13T23:58:32;99185.81;;;18.30;57.39
